CFG6KW VRMM-EDDF
Flight info
| Callsign | CFG6KW |
|---|---|
| Flight time | N/A |
| Altitude | 32000 |
| Route | MUNUT1B MUNUT R329 POMAN P570 OTABI/N0495F330 A474 BBB G208 APANO/N0498F340 G208 KE B210 NH/N0496F330 G326 LUBNA/N0493F350 G326 ZB/N0491F340 L750 RANAH A846 OLADI/N0481F360 A846 ABDAN A909 RODAR N644 ADEKI DCT BADIR DCT LAGAS DCT NOLGA UG261 TBN/N0483F380 UM11 CRM UL746 ODERO DCT OPT DCT ULMIN DCT DEGET DCT ABETI DCT PEROL DCT SUBEN DCT AKINI T161 DEBHI DEBHI1B |
| Aircraft | A339/H-SADE1E2E3GHIJ3J5M1P2RWXY/LB2D1 |
Departure
| Time | 2026-05-04 22:48 |
|---|---|
| Airport | Velana International Airport (VRMM) |
Arrival
| Time | N/A |
|---|---|
| Airport | Frankfurt Main Airport (EDDF) |
| Time | Latitude | Longitude | Altitude | Speed | Heading |
|---|---|---|---|---|---|
| 2026-05-04 22:26 | 4.18711 | 73.52804 | 23 ft | 0 kts | 269° |
| 2026-05-04 22:34 | 4.18711 | 73.52811 | 23 ft | 2 kts | 276° |
| 2026-05-04 22:34 | 4.18707 | 73.52825 | 23 ft | 2 kts | 296° |
| 2026-05-04 22:34 | 4.18699 | 73.52837 | 23 ft | 2 kts | 312° |
| 2026-05-04 22:35 | 4.18688 | 73.52847 | 23 ft | 2 kts | 329° |
| 2026-05-04 22:35 | 4.18674 | 73.52853 | 23 ft | 2 kts | 345° |
| 2026-05-04 22:35 | 4.18659 | 73.52856 | 23 ft | 2 kts | 1° |
| 2026-05-04 22:35 | 4.18645 | 73.52855 | 22 ft | 1 kts | 2° |
| 2026-05-04 22:36 | 4.18642 | 73.52855 | 22 ft | 0 kts | 2° |
| 2026-05-04 22:38 | 4.18644 | 73.52855 | 22 ft | 0 kts | 2° |
| 2026-05-04 22:39 | 4.18655 | 73.52858 | 22 ft | 3 kts | 24° |
| 2026-05-04 22:39 | 4.18675 | 73.52879 | 23 ft | 5 kts | 60° |
| 2026-05-04 22:39 | 4.18699 | 73.52912 | 23 ft | 6 kts | 41° |
| 2026-05-04 22:39 | 4.18750 | 73.52925 | 23 ft | 8 kts | 360° |
| 2026-05-04 22:40 | 4.18817 | 73.52923 | 23 ft | 10 kts | 357° |
| 2026-05-04 22:40 | 4.18900 | 73.52920 | 24 ft | 13 kts | 357° |
| 2026-05-04 22:40 | 4.18993 | 73.52919 | 24 ft | 13 kts | 359° |
| 2026-05-04 22:40 | 4.19092 | 73.52917 | 23 ft | 14 kts | 357° |
| 2026-05-04 22:41 | 4.19192 | 73.52914 | 23 ft | 12 kts | 357° |
| 2026-05-04 22:41 | 4.19296 | 73.52914 | 23 ft | 18 kts | 2° |
| 2026-05-04 22:41 | 4.19424 | 73.52911 | 21 ft | 18 kts | 0° |
| 2026-05-04 22:41 | 4.19554 | 73.52908 | 20 ft | 18 kts | 358° |
| 2026-05-04 22:42 | 4.19682 | 73.52907 | 19 ft | 18 kts | 359° |
| 2026-05-04 22:42 | 4.19813 | 73.52904 | 19 ft | 18 kts | 359° |
| 2026-05-04 22:42 | 4.19943 | 73.52904 | 19 ft | 19 kts | 0° |
| 2026-05-04 22:42 | 4.20077 | 73.52900 | 19 ft | 19 kts | 359° |
| 2026-05-04 22:43 | 4.20207 | 73.52898 | 19 ft | 13 kts | 357° |
| 2026-05-04 22:43 | 4.20307 | 73.52898 | 18 ft | 15 kts | 359° |
| 2026-05-04 22:43 | 4.20422 | 73.52895 | 17 ft | 17 kts | 357° |
| 2026-05-04 22:43 | 4.20547 | 73.52892 | 16 ft | 18 kts | 360° |
| 2026-05-04 22:44 | 4.20675 | 73.52891 | 16 ft | 18 kts | 360° |
| 2026-05-04 22:44 | 4.20731 | 73.52890 | 16 ft | 18 kts | 359° |
| 2026-05-04 22:44 | 4.20831 | 73.52900 | 16 ft | 19 kts | 14° |
| 2026-05-04 22:44 | 4.20964 | 73.52930 | 16 ft | 19 kts | 13° |
| 2026-05-04 22:45 | 4.21096 | 73.52970 | 16 ft | 19 kts | 18° |
| 2026-05-04 22:45 | 4.21247 | 73.53065 | 16 ft | 8 kts | 94° |
| 2026-05-04 22:45 | 4.21208 | 73.53098 | 16 ft | 8 kts | 166° |
| 2026-05-04 22:46 | 4.21150 | 73.53100 | 16 ft | 8 kts | 174° |
| 2026-05-04 22:46 | 4.21125 | 73.53101 | 16 ft | 0 kts | 181° |
| 2026-05-04 22:46 | 4.21124 | 73.53101 | 16 ft | 0 kts | 181° |
| 2026-05-04 22:47 | 4.20895 | 73.53098 | 16 ft | 64 kts | 179° |
| 2026-05-04 22:47 | 4.20248 | 73.53102 | 16 ft | 119 kts | 181° |
| 2026-05-04 22:47 | 4.19250 | 73.53104 | 22 ft | 165 kts | 180° |
| 2026-05-04 22:47 | 4.17988 | 73.53110 | 242 ft | 188 kts | 182° |
| 2026-05-04 22:48 | 4.16663 | 73.53110 | 747 ft | 192 kts | 183° |
| 2026-05-04 22:48 | 4.15317 | 73.53114 | 1289 ft | 198 kts | 182° |
| 2026-05-04 22:48 | 4.13919 | 73.53123 | 1849 ft | 202 kts | 182° |
| 2026-05-04 22:48 | 4.12486 | 73.53142 | 2274 ft | 208 kts | 182° |
| 2026-05-04 22:49 | 4.10985 | 73.53149 | 2427 ft | 226 kts | 184° |
| 2026-05-04 22:49 | 4.09325 | 73.53230 | 2579 ft | 247 kts | 172° |
| 2026-05-04 22:49 | 4.07703 | 73.53928 | 2722 ft | 271 kts | 141° |
| 2026-05-04 22:49 | 4.06539 | 73.55495 | 2913 ft | 292 kts | 111° |
| 2026-05-04 22:50 | 4.06255 | 73.57546 | 3246 ft | 304 kts | 83° |
| 2026-05-04 22:50 | 4.06987 | 73.59549 | 3646 ft | 311 kts | 53° |
| 2026-05-04 22:50 | 4.08577 | 73.60974 | 4108 ft | 313 kts | 25° |
| 2026-05-04 22:50 | 4.10662 | 73.61463 | 4738 ft | 306 kts | 354° |
| 2026-05-04 22:51 | 4.12661 | 73.60942 | 5621 ft | 291 kts | 339° |
| 2026-05-04 22:51 | 4.14561 | 73.60425 | 6445 ft | 280 kts | 349° |
| 2026-05-04 22:51 | 4.16509 | 73.60231 | 7026 ft | 279 kts | 358° |
| 2026-05-04 22:51 | 4.18466 | 73.60272 | 7470 ft | 282 kts | 3° |
| 2026-05-04 22:52 | 4.20425 | 73.60460 | 7921 ft | 285 kts | 6° |
| 2026-05-04 22:52 | 4.22395 | 73.60731 | 8383 ft | 287 kts | 8° |
| 2026-05-04 22:52 | 4.24374 | 73.61051 | 8836 ft | 289 kts | 8° |
| 2026-05-04 22:52 | 4.26388 | 73.61403 | 9298 ft | 291 kts | 9° |
| 2026-05-04 22:53 | 4.28379 | 73.61761 | 9749 ft | 293 kts | 9° |
| 2026-05-04 22:53 | 4.30402 | 73.62131 | 10145 ft | 297 kts | 9° |
| 2026-05-04 22:53 | 4.32484 | 73.62515 | 10366 ft | 309 kts | 10° |
| 2026-05-04 22:53 | 4.34655 | 73.62923 | 10570 ft | 320 kts | 10° |
| 2026-05-04 22:54 | 4.36875 | 73.63337 | 10770 ft | 331 kts | 10° |
| 2026-05-04 22:54 | 4.39202 | 73.63768 | 10973 ft | 342 kts | 10° |
| 2026-05-04 22:54 | 4.41573 | 73.64206 | 11170 ft | 353 kts | 9° |
| 2026-05-04 22:54 | 4.44040 | 73.64555 | 11359 ft | 364 kts | 6° |
| 2026-05-04 22:55 | 4.46613 | 73.64734 | 11546 ft | 374 kts | 1° |
| 2026-05-04 22:55 | 4.49251 | 73.64757 | 11808 ft | 382 kts | 360° |
| 2026-05-04 22:55 | 4.51961 | 73.64749 | 12241 ft | 384 kts | 360° |
| 2026-05-04 22:55 | 4.54650 | 73.64740 | 12682 ft | 387 kts | 360° |
| 2026-05-04 22:56 | 4.57367 | 73.64698 | 13093 ft | 389 kts | 357° |
| 2026-05-04 22:56 | 4.60053 | 73.64468 | 13490 ft | 392 kts | 353° |
| 2026-05-04 22:56 | 4.62777 | 73.64016 | 13911 ft | 394 kts | 348° |
| 2026-05-04 22:56 | 4.65470 | 73.63426 | 14306 ft | 397 kts | 347° |
| 2026-05-04 22:57 | 4.68171 | 73.62814 | 14728 ft | 398 kts | 347° |
| 2026-05-04 22:57 | 4.70885 | 73.62195 | 15090 ft | 401 kts | 347° |
| 2026-05-04 22:57 | 4.73637 | 73.61568 | 15461 ft | 404 kts | 347° |
| 2026-05-04 22:57 | 4.76381 | 73.60944 | 15851 ft | 406 kts | 347° |
| 2026-05-04 22:58 | 4.79163 | 73.60316 | 16225 ft | 408 kts | 347° |
| 2026-05-04 22:58 | 4.81933 | 73.59688 | 16578 ft | 411 kts | 347° |
| 2026-05-04 22:58 | 4.84743 | 73.59051 | 16943 ft | 413 kts | 347° |
| 2026-05-04 22:58 | 4.87578 | 73.58408 | 17279 ft | 416 kts | 347° |
| 2026-05-04 22:59 | 4.90421 | 73.57766 | 17617 ft | 418 kts | 347° |
| 2026-05-04 22:59 | 4.93267 | 73.57124 | 17944 ft | 421 kts | 347° |
| 2026-05-04 22:59 | 4.96129 | 73.56478 | 18262 ft | 424 kts | 347° |
| 2026-05-04 22:59 | 4.99036 | 73.55822 | 18577 ft | 427 kts | 347° |
| 2026-05-04 23:00 | 5.01943 | 73.55165 | 18880 ft | 430 kts | 347° |
| 2026-05-04 23:00 | 5.04889 | 73.54498 | 19178 ft | 432 kts | 347° |
| 2026-05-04 23:00 | 5.07855 | 73.53828 | 19469 ft | 435 kts | 347° |
| 2026-05-04 23:00 | 5.10829 | 73.53156 | 19756 ft | 438 kts | 347° |
| 2026-05-04 23:01 | 5.13810 | 73.52482 | 20031 ft | 441 kts | 347° |
| 2026-05-04 23:01 | 5.16823 | 73.51799 | 20312 ft | 443 kts | 347° |
| 2026-05-04 23:01 | 5.19834 | 73.51069 | 20572 ft | 445 kts | 343° |
| 2026-05-04 23:01 | 5.22793 | 73.50083 | 20852 ft | 447 kts | 338° |
| 2026-05-04 23:02 | 5.25656 | 73.48830 | 21103 ft | 449 kts | 333° |
| 2026-05-04 23:02 | 5.28418 | 73.47362 | 21344 ft | 452 kts | 330° |
| 2026-05-04 23:02 | 5.31178 | 73.45828 | 21592 ft | 454 kts | 330° |
| 2026-05-04 23:02 | 5.33949 | 73.44275 | 21840 ft | 456 kts | 330° |
| 2026-05-04 23:03 | 5.36714 | 73.42730 | 22086 ft | 458 kts | 330° |
| 2026-05-04 23:03 | 5.39539 | 73.41157 | 22330 ft | 460 kts | 330° |
| 2026-05-04 23:03 | 5.42350 | 73.39597 | 22581 ft | 462 kts | 330° |
| 2026-05-04 23:03 | 5.45151 | 73.38042 | 22821 ft | 463 kts | 330° |
| 2026-05-04 23:04 | 5.47999 | 73.36468 | 23044 ft | 466 kts | 331° |
| 2026-05-04 23:04 | 5.50938 | 73.35107 | 23271 ft | 468 kts | 338° |
| 2026-05-04 23:04 | 5.54045 | 73.34090 | 23498 ft | 470 kts | 345° |
| 2026-05-04 23:04 | 5.57282 | 73.33433 | 23738 ft | 471 kts | 351° |
| 2026-05-04 23:05 | 5.60532 | 73.32953 | 23984 ft | 473 kts | 352° |
| 2026-05-04 23:05 | 5.63827 | 73.32499 | 24216 ft | 474 kts | 352° |
| 2026-05-04 23:05 | 5.67104 | 73.32052 | 24453 ft | 475 kts | 352° |
| 2026-05-04 23:05 | 5.70364 | 73.31601 | 24676 ft | 477 kts | 352° |
| 2026-05-04 23:06 | 5.73681 | 73.31138 | 24897 ft | 478 kts | 352° |
| 2026-05-04 23:06 | 5.77014 | 73.30669 | 25113 ft | 480 kts | 352° |
| 2026-05-04 23:06 | 5.80335 | 73.30199 | 25316 ft | 482 kts | 352° |
| 2026-05-04 23:06 | 5.83660 | 73.29728 | 25536 ft | 483 kts | 352° |
| 2026-05-04 23:07 | 5.86999 | 73.29253 | 25755 ft | 484 kts | 352° |
| 2026-05-04 23:07 | 5.90355 | 73.28776 | 25946 ft | 486 kts | 352° |
| 2026-05-04 23:07 | 5.93701 | 73.28300 | 26115 ft | 488 kts | 352° |
| 2026-05-04 23:07 | 5.97060 | 73.27823 | 26299 ft | 489 kts | 352° |
| 2026-05-04 23:08 | 6.00457 | 73.27341 | 26516 ft | 490 kts | 352° |
| 2026-05-04 23:08 | 6.03831 | 73.26860 | 26699 ft | 491 kts | 352° |
| 2026-05-04 23:08 | 6.07238 | 73.26376 | 26872 ft | 493 kts | 352° |
| 2026-05-04 23:08 | 6.10632 | 73.25892 | 27081 ft | 494 kts | 352° |
| 2026-05-04 23:09 | 6.14072 | 73.25402 | 27345 ft | 493 kts | 352° |
| 2026-05-04 23:09 | 6.17458 | 73.24921 | 27619 ft | 492 kts | 352° |
| 2026-05-04 23:09 | 6.20868 | 73.24436 | 27878 ft | 491 kts | 352° |
| 2026-05-04 23:09 | 6.24253 | 73.23955 | 28102 ft | 491 kts | 352° |
| 2026-05-04 23:10 | 6.27651 | 73.23473 | 28318 ft | 492 kts | 352° |
| 2026-05-04 23:10 | 6.31069 | 73.22986 | 28563 ft | 491 kts | 352° |
| 2026-05-04 23:10 | 6.34445 | 73.22504 | 28820 ft | 491 kts | 352° |
| 2026-05-04 23:10 | 6.37825 | 73.22021 | 29052 ft | 491 kts | 352° |
| 2026-05-04 23:11 | 6.41203 | 73.21538 | 29300 ft | 490 kts | 352° |
| 2026-05-04 23:11 | 6.44576 | 73.21057 | 29578 ft | 489 kts | 352° |
| 2026-05-04 23:11 | 6.47969 | 73.20574 | 29870 ft | 488 kts | 352° |
| 2026-05-04 23:11 | 6.51340 | 73.20095 | 30129 ft | 487 kts | 352° |
| 2026-05-04 23:12 | 6.54666 | 73.19622 | 30320 ft | 488 kts | 352° |
| 2026-05-04 23:12 | 6.58063 | 73.19139 | 30486 ft | 489 kts | 352° |
| 2026-05-04 23:12 | 6.61446 | 73.18657 | 30654 ft | 490 kts | 352° |
| 2026-05-04 23:12 | 6.64846 | 73.18173 | 30848 ft | 490 kts | 353° |
| 2026-05-04 23:13 | 6.68224 | 73.17691 | 31041 ft | 490 kts | 352° |
| 2026-05-04 23:13 | 6.71600 | 73.17177 | 31209 ft | 491 kts | 350° |
| 2026-05-04 23:13 | 6.74978 | 73.16492 | 31379 ft | 493 kts | 347° |
| 2026-05-04 23:13 | 6.78276 | 73.15633 | 31541 ft | 494 kts | 344° |
| 2026-05-04 23:14 | 6.81578 | 73.14622 | 31718 ft | 494 kts | 343° |
| 2026-05-04 23:14 | 6.84891 | 73.13575 | 31822 ft | 496 kts | 343° |
| 2026-05-04 23:14 | 6.91474 | 73.11485 | 31829 ft | 496 kts | 343° |
| 2026-05-04 23:15 | 6.98063 | 73.09402 | 31831 ft | 496 kts | 343° |
| 2026-05-04 23:15 | 7.04659 | 73.07317 | 31832 ft | 495 kts | 343° |
| 2026-05-04 23:16 | 7.11250 | 73.05234 | 31832 ft | 495 kts | 343° |
| 2026-05-04 23:16 | 7.17820 | 73.03162 | 31833 ft | 495 kts | 343° |
| 2026-05-04 23:17 | 7.24416 | 73.01081 | 31832 ft | 495 kts | 343° |
| 2026-05-04 23:17 | 7.31007 | 72.98998 | 31832 ft | 495 kts | 343° |
| 2026-05-04 23:18 | 7.37567 | 72.96926 | 31834 ft | 495 kts | 343° |
| 2026-05-04 23:18 | 7.44143 | 72.94849 | 31831 ft | 494 kts | 343° |
| 2026-05-04 23:19 | 7.50756 | 72.92875 | 31833 ft | 493 kts | 346° |
| 2026-05-04 23:19 | 7.57459 | 72.91381 | 31833 ft | 493 kts | 348° |
| 2026-05-04 23:20 | 7.64184 | 72.89953 | 31833 ft | 494 kts | 348° |
| 2026-05-04 23:20 | 7.70919 | 72.88520 | 31833 ft | 494 kts | 348° |
| 2026-05-04 23:21 | 7.77656 | 72.87083 | 31833 ft | 494 kts | 348° |
| 2026-05-04 23:21 | 7.84401 | 72.85642 | 31833 ft | 494 kts | 348° |
| 2026-05-04 23:22 | 7.91141 | 72.84200 | 31833 ft | 493 kts | 348° |
| 2026-05-04 23:22 | 7.97872 | 72.82758 | 31834 ft | 493 kts | 348° |
| 2026-05-04 23:23 | 8.04604 | 72.81316 | 31833 ft | 493 kts | 348° |
| 2026-05-04 23:23 | 8.11302 | 72.79881 | 31836 ft | 493 kts | 348° |
| 2026-05-04 23:24 | 8.18045 | 72.78438 | 31844 ft | 494 kts | 348° |
| 2026-05-04 23:24 | 8.24770 | 72.76997 | 31851 ft | 493 kts | 348° |
| 2026-05-04 23:25 | 8.31527 | 72.75549 | 31850 ft | 494 kts | 348° |
| 2026-05-04 23:25 | 8.38230 | 72.74111 | 31849 ft | 494 kts | 348° |
| 2026-05-04 23:26 | 8.44965 | 72.72666 | 31850 ft | 494 kts | 348° |
| 2026-05-04 23:26 | 8.51723 | 72.71216 | 31845 ft | 494 kts | 348° |
| 2026-05-04 23:27 | 8.58497 | 72.69762 | 31838 ft | 496 kts | 348° |
| 2026-05-04 23:27 | 8.65251 | 72.68313 | 31833 ft | 496 kts | 348° |
| 2026-05-04 23:28 | 8.71980 | 72.66867 | 31833 ft | 495 kts | 348° |
| 2026-05-04 23:28 | 8.78730 | 72.65416 | 31831 ft | 496 kts | 348° |
| 2026-05-04 23:29 | 8.85524 | 72.63955 | 31832 ft | 496 kts | 348° |
| 2026-05-04 23:29 | 8.92295 | 72.62499 | 31831 ft | 497 kts | 348° |
| 2026-05-04 23:30 | 8.99062 | 72.61044 | 31834 ft | 497 kts | 348° |
| 2026-05-04 23:30 | 9.05848 | 72.59583 | 31833 ft | 496 kts | 348° |
| 2026-05-04 23:31 | 9.12583 | 72.58131 | 31833 ft | 497 kts | 348° |
| 2026-05-04 23:31 | 9.19392 | 72.56664 | 31832 ft | 498 kts | 348° |
| 2026-05-04 23:32 | 9.26192 | 72.55199 | 31832 ft | 498 kts | 348° |
| 2026-05-04 23:32 | 9.32982 | 72.53736 | 31833 ft | 498 kts | 348° |
| 2026-05-04 23:33 | 9.39747 | 72.52277 | 31833 ft | 499 kts | 348° |
| 2026-05-04 23:33 | 9.46585 | 72.50803 | 31832 ft | 498 kts | 348° |
| 2026-05-04 23:34 | 9.53346 | 72.49344 | 31833 ft | 498 kts | 348° |
| 2026-05-04 23:34 | 9.60134 | 72.47877 | 31833 ft | 498 kts | 348° |
| 2026-05-04 23:35 | 9.66949 | 72.46404 | 31833 ft | 498 kts | 348° |
| 2026-05-04 23:35 | 9.73727 | 72.44939 | 31834 ft | 498 kts | 348° |
| 2026-05-04 23:36 | 9.80524 | 72.43471 | 31833 ft | 500 kts | 348° |
| 2026-05-04 23:36 | 9.87322 | 72.42003 | 31834 ft | 500 kts | 348° |
| 2026-05-04 23:37 | 9.94144 | 72.40528 | 31834 ft | 499 kts | 348° |
| 2026-05-04 23:37 | 10.00954 | 72.39089 | 31834 ft | 499 kts | 349° |
| 2026-05-04 23:38 | 10.07785 | 72.37717 | 31836 ft | 499 kts | 349° |
| 2026-05-04 23:38 | 10.14630 | 72.36340 | 31841 ft | 498 kts | 349° |
| 2026-05-04 23:39 | 10.21443 | 72.34964 | 31846 ft | 498 kts | 348° |
| 2026-05-04 23:39 | 10.28225 | 72.33592 | 31853 ft | 498 kts | 348° |
| 2026-05-04 23:40 | 10.35023 | 72.32216 | 31851 ft | 497 kts | 348° |
| 2026-05-04 23:40 | 10.41832 | 72.30833 | 31852 ft | 497 kts | 348° |
| 2026-05-04 23:41 | 10.48615 | 72.29456 | 31853 ft | 497 kts | 348° |
| 2026-05-04 23:41 | 10.55393 | 72.28080 | 31851 ft | 496 kts | 348° |
| 2026-05-04 23:42 | 10.62199 | 72.26699 | 31853 ft | 497 kts | 348° |
| 2026-05-04 23:42 | 10.69020 | 72.25314 | 31851 ft | 496 kts | 348° |
| 2026-05-04 23:43 | 10.75793 | 72.23940 | 31852 ft | 496 kts | 348° |
| 2026-05-04 23:43 | 10.82573 | 72.22562 | 31852 ft | 495 kts | 348° |
| 2026-05-04 23:44 | 10.89329 | 72.21188 | 31851 ft | 493 kts | 348° |
| 2026-05-04 23:44 | 10.96022 | 72.19826 | 31852 ft | 493 kts | 348° |
| 2026-05-04 23:45 | 11.02802 | 72.18446 | 31850 ft | 493 kts | 348° |
| 2026-05-04 23:45 | 11.09492 | 72.17084 | 31848 ft | 493 kts | 348° |
| 2026-05-04 23:46 | 11.16232 | 72.15711 | 31846 ft | 493 kts | 348° |
| 2026-05-04 23:46 | 11.22993 | 72.14334 | 31843 ft | 493 kts | 348° |
| 2026-05-04 23:47 | 11.29765 | 72.12954 | 31836 ft | 493 kts | 348° |
| 2026-05-04 23:47 | 11.36465 | 72.11588 | 31831 ft | 493 kts | 348° |
| 2026-05-04 23:48 | 11.43230 | 72.10207 | 31831 ft | 492 kts | 348° |
| 2026-05-04 23:48 | 11.49946 | 72.08836 | 31828 ft | 492 kts | 348° |
| 2026-05-04 23:49 | 11.56649 | 72.07467 | 31830 ft | 492 kts | 348° |
| 2026-05-04 23:49 | 11.63397 | 72.06090 | 31830 ft | 492 kts | 348° |
| 2026-05-04 23:50 | 11.70116 | 72.04719 | 31828 ft | 491 kts | 348° |
| 2026-05-04 23:50 | 11.76844 | 72.03346 | 31832 ft | 491 kts | 348° |
| 2026-05-04 23:51 | 11.83524 | 72.01952 | 31827 ft | 491 kts | 345° |
| 2026-05-04 23:51 | 11.89941 | 71.99520 | 31829 ft | 490 kts | 332° |
| 2026-05-04 23:52 | 11.95600 | 71.95692 | 31828 ft | 488 kts | 319° |
| 2026-05-04 23:52 | 12.00263 | 71.90669 | 31836 ft | 488 kts | 307° |
| 2026-05-04 23:53 | 12.04287 | 71.85124 | 31844 ft | 489 kts | 306° |
| 2026-05-04 23:53 | 12.08310 | 71.79518 | 31849 ft | 489 kts | 306° |
| 2026-05-04 23:54 | 12.12335 | 71.73940 | 31852 ft | 488 kts | 306° |
| 2026-05-04 23:54 | 12.16361 | 71.68368 | 31855 ft | 488 kts | 306° |
| 2026-05-04 23:55 | 12.20388 | 71.62794 | 31855 ft | 489 kts | 306° |
| 2026-05-04 23:56 | 12.26467 | 71.54381 | 31854 ft | 490 kts | 306° |
| 2026-05-04 23:56 | 12.30516 | 71.48776 | 31856 ft | 489 kts | 306° |
| 2026-05-04 23:57 | 12.34524 | 71.43229 | 31853 ft | 488 kts | 306° |
| 2026-05-04 23:57 | 12.38536 | 71.37663 | 31852 ft | 486 kts | 306° |
| 2026-05-04 23:58 | 12.42551 | 71.32082 | 31845 ft | 486 kts | 306° |
| 2026-05-04 23:58 | 12.46563 | 71.26518 | 31839 ft | 486 kts | 306° |
| 2026-05-04 23:59 | 12.50586 | 71.20937 | 31838 ft | 487 kts | 307° |
| 2026-05-04 23:59 | 12.54602 | 71.15371 | 31838 ft | 487 kts | 306° |
| 2026-05-05 00:00 | 12.58599 | 71.09824 | 31836 ft | 487 kts | 307° |
| 2026-05-05 00:00 | 12.62606 | 71.04256 | 31836 ft | 486 kts | 307° |
| 2026-05-05 00:01 | 12.66633 | 70.98663 | 31835 ft | 487 kts | 306° |
| 2026-05-05 00:01 | 12.70643 | 70.93087 | 31835 ft | 487 kts | 307° |
| 2026-05-05 00:02 | 12.74668 | 70.87486 | 31836 ft | 487 kts | 307° |
| 2026-05-05 00:02 | 12.78673 | 70.81911 | 31835 ft | 487 kts | 307° |
| 2026-05-05 00:03 | 12.82681 | 70.76327 | 31843 ft | 488 kts | 306° |
| 2026-05-05 00:03 | 12.86697 | 70.70727 | 31851 ft | 488 kts | 306° |
| 2026-05-05 00:04 | 12.90713 | 70.65127 | 31854 ft | 488 kts | 306° |
| 2026-05-05 00:04 | 12.94728 | 70.59521 | 31856 ft | 489 kts | 306° |
| 2026-05-05 00:05 | 12.98773 | 70.53947 | 31849 ft | 489 kts | 311° |
| 2026-05-05 00:05 | 13.01256 | 70.51559 | 31847 ft | 488 kts | 324° |
| 2026-05-05 00:05 | 13.04154 | 70.49788 | 31850 ft | 487 kts | 336° |
| 2026-05-05 00:05 | 13.07372 | 70.48663 | 31852 ft | 486 kts | 348° |
| 2026-05-05 00:06 | 13.10697 | 70.48246 | 31851 ft | 485 kts | 0° |
| 2026-05-05 00:06 | 13.14066 | 70.48535 | 31851 ft | 484 kts | 12° |
| 2026-05-05 00:06 | 13.17320 | 70.49509 | 31857 ft | 484 kts | 20° |
| 2026-05-05 00:07 | 13.23618 | 70.51946 | 31849 ft | 484 kts | 21° |
| 2026-05-05 00:07 | 13.29939 | 70.54404 | 31844 ft | 483 kts | 21° |
| 2026-05-05 00:08 | 13.36233 | 70.56833 | 31843 ft | 483 kts | 21° |
| 2026-05-05 00:08 | 13.42527 | 70.59251 | 31843 ft | 482 kts | 21° |
| 2026-05-05 00:09 | 13.48818 | 70.61668 | 31844 ft | 483 kts | 21° |
| 2026-05-05 00:09 | 13.55148 | 70.64099 | 31846 ft | 484 kts | 21° |
| 2026-05-05 00:10 | 13.61427 | 70.66513 | 31840 ft | 484 kts | 21° |
| 2026-05-05 00:10 | 13.67767 | 70.68951 | 31833 ft | 484 kts | 21° |
| 2026-05-05 00:11 | 13.74052 | 70.71368 | 31831 ft | 483 kts | 21° |
| 2026-05-05 00:11 | 13.80384 | 70.73806 | 31835 ft | 482 kts | 21° |
| 2026-05-05 00:12 | 13.86660 | 70.76224 | 31830 ft | 483 kts | 21° |
| 2026-05-05 00:12 | 13.93001 | 70.78668 | 31831 ft | 484 kts | 21° |
| 2026-05-05 00:13 | 13.99315 | 70.81104 | 31831 ft | 485 kts | 21° |
| 2026-05-05 00:13 | 14.05602 | 70.83531 | 31834 ft | 485 kts | 21° |
| 2026-05-05 00:14 | 14.11968 | 70.85989 | 31832 ft | 484 kts | 21° |
| 2026-05-05 00:14 | 14.18280 | 70.88429 | 31830 ft | 484 kts | 21° |
| 2026-05-05 00:15 | 14.24573 | 70.90865 | 31831 ft | 484 kts | 21° |
| 2026-05-05 00:15 | 14.30890 | 70.93314 | 31836 ft | 483 kts | 21° |
| 2026-05-05 00:16 | 14.37171 | 70.95752 | 31832 ft | 483 kts | 21° |
| 2026-05-05 00:16 | 14.41867 | 70.97605 | 31842 ft | 484 kts | 21° |
| 2026-05-05 00:17 | 14.47015 | 70.99661 | 31867 ft | 483 kts | 20° |
| 2026-05-05 00:17 | 14.53261 | 71.02138 | 31889 ft | 482 kts | 20° |
| 2026-05-05 00:18 | 14.59562 | 71.04636 | 31884 ft | 482 kts | 20° |
| 2026-05-05 00:18 | 14.65830 | 71.07119 | 31854 ft | 483 kts | 21° |
| 2026-05-05 00:19 | 14.72119 | 71.09617 | 31834 ft | 483 kts | 21° |
| 2026-05-05 00:19 | 14.78416 | 71.12129 | 31835 ft | 482 kts | 21° |
| 2026-05-05 00:20 | 14.84672 | 71.14623 | 31827 ft | 482 kts | 21° |
| 2026-05-05 00:20 | 14.90925 | 71.17117 | 31830 ft | 482 kts | 21° |
| 2026-05-05 00:21 | 14.97207 | 71.19621 | 31830 ft | 482 kts | 21° |
| 2026-05-05 00:21 | 15.03439 | 71.22107 | 31829 ft | 482 kts | 21° |
| 2026-05-05 00:22 | 15.09719 | 71.24614 | 31830 ft | 483 kts | 21° |
| 2026-05-05 00:22 | 15.16003 | 71.27125 | 31832 ft | 482 kts | 21° |
| 2026-05-05 00:23 | 15.22252 | 71.29623 | 31832 ft | 481 kts | 21° |
| 2026-05-05 00:23 | 15.28484 | 71.32118 | 31830 ft | 480 kts | 21° |
| 2026-05-05 00:24 | 15.34738 | 71.34621 | 31832 ft | 481 kts | 21° |
| 2026-05-05 00:24 | 15.40971 | 71.37118 | 31828 ft | 481 kts | 21° |
| 2026-05-05 00:25 | 15.47229 | 71.39625 | 31830 ft | 481 kts | 21° |
| 2026-05-05 00:25 | 15.53472 | 71.42130 | 31830 ft | 480 kts | 21° |
| 2026-05-05 00:26 | 15.59717 | 71.44636 | 31829 ft | 480 kts | 20° |
| 2026-05-05 00:26 | 15.65935 | 71.47133 | 31833 ft | 480 kts | 21° |
| 2026-05-05 00:27 | 15.72182 | 71.49643 | 31833 ft | 479 kts | 21° |
| 2026-05-05 00:27 | 15.78411 | 71.52149 | 31841 ft | 480 kts | 20° |
| 2026-05-05 00:28 | 15.84598 | 71.54639 | 31835 ft | 480 kts | 20° |
| 2026-05-05 00:28 | 15.90885 | 71.57173 | 31835 ft | 480 kts | 20° |
| 2026-05-05 00:29 | 15.97107 | 71.59682 | 31833 ft | 481 kts | 20° |
| 2026-05-05 00:29 | 16.03360 | 71.62209 | 31831 ft | 480 kts | 20° |
| 2026-05-05 00:30 | 16.09609 | 71.64731 | 31833 ft | 480 kts | 20° |
| 2026-05-05 00:30 | 16.15842 | 71.67252 | 31833 ft | 479 kts | 20° |
| 2026-05-05 00:31 | 16.22032 | 71.69764 | 31832 ft | 479 kts | 21° |
| 2026-05-05 00:31 | 16.28278 | 71.72305 | 31832 ft | 479 kts | 21° |
| 2026-05-05 00:32 | 16.34466 | 71.74824 | 31831 ft | 479 kts | 20° |
| 2026-05-05 00:32 | 16.40692 | 71.77361 | 31832 ft | 480 kts | 20° |
| 2026-05-05 00:33 | 16.46918 | 71.79900 | 31831 ft | 480 kts | 20° |
| 2026-05-05 00:33 | 16.53173 | 71.82452 | 31835 ft | 480 kts | 20° |
| 2026-05-05 00:34 | 16.59396 | 71.84994 | 31838 ft | 479 kts | 20° |
| 2026-05-05 00:34 | 16.65574 | 71.87519 | 31843 ft | 480 kts | 20° |
| 2026-05-05 00:35 | 16.71851 | 71.90087 | 31847 ft | 481 kts | 20° |
| 2026-05-05 00:35 | 16.78058 | 71.92628 | 31848 ft | 480 kts | 20° |
| 2026-05-05 00:36 | 16.84285 | 71.95180 | 31847 ft | 480 kts | 20° |
| 2026-05-05 00:36 | 16.90520 | 71.97737 | 31839 ft | 481 kts | 20° |
| 2026-05-05 00:37 | 16.96762 | 72.00299 | 31834 ft | 481 kts | 20° |
| 2026-05-05 00:37 | 17.03010 | 72.02869 | 31833 ft | 482 kts | 20° |
| 2026-05-05 00:38 | 17.09269 | 72.05441 | 31835 ft | 483 kts | 20° |
| 2026-05-05 00:38 | 17.15497 | 72.07969 | 31833 ft | 482 kts | 20° |
| 2026-05-05 00:39 | 17.21773 | 72.10510 | 31834 ft | 481 kts | 20° |
| 2026-05-05 00:39 | 17.28044 | 72.13057 | 31834 ft | 481 kts | 20° |
| 2026-05-05 00:40 | 17.34267 | 72.15591 | 31836 ft | 481 kts | 20° |
| 2026-05-05 00:40 | 17.40505 | 72.18133 | 31836 ft | 482 kts | 19° |
| 2026-05-05 00:41 | 17.46778 | 72.20691 | 31832 ft | 483 kts | 19° |
| 2026-05-05 00:41 | 17.53034 | 72.23244 | 31834 ft | 483 kts | 19° |
| 2026-05-05 00:42 | 17.59316 | 72.25810 | 31834 ft | 483 kts | 19° |
| 2026-05-05 00:42 | 17.65575 | 72.28369 | 31834 ft | 483 kts | 19° |
| 2026-05-05 00:43 | 17.71859 | 72.30939 | 31834 ft | 483 kts | 19° |
| 2026-05-05 00:43 | 17.78139 | 72.33511 | 31836 ft | 484 kts | 19° |
| 2026-05-05 00:44 | 17.84410 | 72.36082 | 31839 ft | 485 kts | 19° |
| 2026-05-05 00:44 | 17.90705 | 72.38664 | 31840 ft | 485 kts | 19° |
| 2026-05-05 00:45 | 17.97033 | 72.41262 | 31842 ft | 485 kts | 19° |
| 2026-05-05 00:45 | 18.03317 | 72.43843 | 31840 ft | 485 kts | 19° |
| 2026-05-05 00:46 | 18.09602 | 72.46426 | 31841 ft | 485 kts | 19° |
| 2026-05-05 00:46 | 18.15915 | 72.49023 | 31843 ft | 485 kts | 19° |
| 2026-05-05 00:47 | 18.22221 | 72.51618 | 31842 ft | 486 kts | 19° |
| 2026-05-05 00:47 | 18.28521 | 72.54213 | 31844 ft | 486 kts | 19° |
| 2026-05-05 00:48 | 18.34799 | 72.56802 | 31845 ft | 486 kts | 19° |
| 2026-05-05 00:48 | 18.41103 | 72.59404 | 31848 ft | 485 kts | 19° |
| 2026-05-05 00:49 | 18.47385 | 72.61999 | 31850 ft | 485 kts | 19° |
| 2026-05-05 00:49 | 18.53681 | 72.64604 | 31852 ft | 485 kts | 19° |
| 2026-05-05 00:50 | 18.59963 | 72.67204 | 31854 ft | 485 kts | 19° |
| 2026-05-05 00:50 | 18.66294 | 72.69825 | 31855 ft | 486 kts | 19° |
| 2026-05-05 00:51 | 18.72602 | 72.72440 | 31854 ft | 486 kts | 19° |
| 2026-05-05 00:51 | 18.78902 | 72.75053 | 31854 ft | 486 kts | 19° |
| 2026-05-05 00:52 | 18.85188 | 72.77664 | 31854 ft | 485 kts | 19° |
| 2026-05-05 00:52 | 18.91447 | 72.80269 | 31851 ft | 485 kts | 19° |
| 2026-05-05 00:53 | 18.97733 | 72.82884 | 31853 ft | 485 kts | 19° |
| 2026-05-05 00:53 | 19.04107 | 72.85234 | 31846 ft | 484 kts | 13° |
| 2026-05-05 00:54 | 19.10661 | 72.86870 | 31847 ft | 482 kts | 7° |
| 2026-05-05 00:54 | 19.17348 | 72.87769 | 31841 ft | 481 kts | 1° |
| 2026-05-05 00:55 | 19.23993 | 72.88103 | 31834 ft | 480 kts | 359° |
| 2026-05-05 00:55 | 19.30668 | 72.88377 | 31834 ft | 479 kts | 359° |
| 2026-05-05 00:56 | 19.37374 | 72.88657 | 31832 ft | 479 kts | 359° |
| 2026-05-05 00:56 | 19.44048 | 72.88941 | 31831 ft | 479 kts | 359° |
| 2026-05-05 00:57 | 19.50641 | 72.89226 | 31831 ft | 464 kts | 359° |
| 2026-05-05 00:57 | 19.53805 | 72.89365 | 31833 ft | 451 kts | 359° |
| 2026-05-05 00:57 | 19.56900 | 72.89503 | 31836 ft | 437 kts | 359° |
| 2026-05-05 00:57 | 19.59943 | 72.89636 | 31838 ft | 424 kts | 359° |
| 2026-05-05 00:58 | 19.62844 | 72.89762 | 31841 ft | 411 kts | 359° |
| 2026-05-05 00:58 | 19.68527 | 72.90002 | 31847 ft | 410 kts | 359° |
| 2026-05-05 00:59 | 19.74230 | 72.90244 | 31848 ft | 409 kts | 358° |
| 2026-05-05 00:59 | 19.79937 | 72.90488 | 31849 ft | 409 kts | 359° |
| 2026-05-05 01:00 | 19.85658 | 72.90734 | 31852 ft | 410 kts | 359° |
| 2026-05-05 01:00 | 19.91368 | 72.90980 | 31855 ft | 410 kts | 359° |
| 2026-05-05 01:01 | 19.97074 | 72.91226 | 31857 ft | 411 kts | 358° |
| 2026-05-05 01:01 | 20.02782 | 72.91472 | 31863 ft | 410 kts | 358° |
| 2026-05-05 01:02 | 20.08466 | 72.91717 | 31863 ft | 409 kts | 358° |
| 2026-05-05 01:02 | 20.14190 | 72.91964 | 31859 ft | 409 kts | 358° |
| 2026-05-05 01:03 | 20.19888 | 72.92210 | 31854 ft | 409 kts | 358° |
| 2026-05-05 01:03 | 20.25573 | 72.92455 | 31853 ft | 410 kts | 358° |
| 2026-05-05 01:04 | 20.31296 | 72.92704 | 31850 ft | 410 kts | 358° |
| 2026-05-05 01:04 | 20.39810 | 72.93072 | 31848 ft | 409 kts | 358° |
| 2026-05-05 01:05 | 20.45502 | 72.93321 | 31845 ft | 408 kts | 358° |
| 2026-05-05 01:05 | 20.51206 | 72.93570 | 31844 ft | 408 kts | 358° |
| 2026-05-05 01:06 | 20.56877 | 72.93817 | 31845 ft | 408 kts | 358° |
| 2026-05-05 01:06 | 20.62536 | 72.94064 | 31842 ft | 408 kts | 358° |
| 2026-05-05 01:07 | 20.68216 | 72.94312 | 31841 ft | 408 kts | 358° |
| 2026-05-05 01:07 | 20.73935 | 72.94560 | 31839 ft | 408 kts | 358° |
| 2026-05-05 01:08 | 20.79604 | 72.94785 | 31831 ft | 407 kts | 357° |
| 2026-05-05 01:08 | 20.85236 | 72.94984 | 31824 ft | 406 kts | 357° |
| 2026-05-05 01:09 | 20.90894 | 72.95187 | 31825 ft | 406 kts | 357° |
| 2026-05-05 01:09 | 20.96587 | 72.95394 | 31829 ft | 406 kts | 357° |
| 2026-05-05 01:10 | 21.02230 | 72.95602 | 31833 ft | 406 kts | 357° |
| 2026-05-05 01:10 | 21.07856 | 72.95809 | 31824 ft | 405 kts | 357° |
| 2026-05-05 01:11 | 21.13521 | 72.96017 | 31827 ft | 405 kts | 357° |
| 2026-05-05 01:11 | 21.19142 | 72.96227 | 31829 ft | 405 kts | 357° |
| 2026-05-05 01:12 | 21.24776 | 72.96513 | 31831 ft | 405 kts | 358° |
| 2026-05-05 01:12 | 21.30426 | 72.96814 | 31831 ft | 405 kts | 358° |
| 2026-05-05 01:13 | 21.36066 | 72.97111 | 31830 ft | 405 kts | 358° |
| 2026-05-05 01:13 | 21.41689 | 72.97407 | 31833 ft | 405 kts | 358° |
| 2026-05-05 01:14 | 21.47360 | 72.97704 | 31832 ft | 405 kts | 358° |
| 2026-05-05 01:14 | 21.52968 | 72.97778 | 31827 ft | 400 kts | 349° |
| 2026-05-05 01:15 | 21.58367 | 72.96632 | 31834 ft | 392 kts | 338° |
| 2026-05-05 01:15 | 21.63302 | 72.94285 | 31834 ft | 386 kts | 326° |
| 2026-05-05 01:16 | 21.67720 | 72.91034 | 31832 ft | 384 kts | 321° |
| 2026-05-05 01:16 | 21.72043 | 72.87652 | 31829 ft | 383 kts | 321° |
| 2026-05-05 01:17 | 21.76329 | 72.84297 | 31832 ft | 383 kts | 321° |
| 2026-05-05 01:17 | 21.80639 | 72.80924 | 31829 ft | 384 kts | 321° |
| 2026-05-05 01:18 | 21.84973 | 72.77531 | 31829 ft | 383 kts | 321° |
| 2026-05-05 01:18 | 21.89297 | 72.74144 | 31828 ft | 383 kts | 321° |
| 2026-05-05 01:19 | 21.93599 | 72.70773 | 31821 ft | 383 kts | 321° |
| 2026-05-05 01:19 | 21.97918 | 72.67386 | 31814 ft | 383 kts | 321° |
| 2026-05-05 01:20 | 22.02220 | 72.64008 | 31812 ft | 383 kts | 321° |
| 2026-05-05 01:20 | 22.06537 | 72.60617 | 31813 ft | 383 kts | 321° |
| 2026-05-05 01:21 | 22.10837 | 72.57237 | 31813 ft | 383 kts | 321° |
| 2026-05-05 01:21 | 22.15143 | 72.53848 | 31812 ft | 382 kts | 321° |
| 2026-05-05 01:22 | 22.19419 | 72.50481 | 31811 ft | 382 kts | 321° |
| 2026-05-05 01:22 | 22.23708 | 72.47101 | 31809 ft | 381 kts | 321° |
| 2026-05-05 01:23 | 22.27990 | 72.43726 | 31810 ft | 381 kts | 321° |
| 2026-05-05 01:23 | 22.32261 | 72.40355 | 31811 ft | 380 kts | 321° |
| 2026-05-05 01:24 | 22.36523 | 72.36987 | 31813 ft | 381 kts | 321° |
| 2026-05-05 01:24 | 22.40809 | 72.33598 | 31815 ft | 380 kts | 321° |
| 2026-05-05 01:25 | 22.45082 | 72.30218 | 31814 ft | 379 kts | 321° |
| 2026-05-05 01:25 | 22.49316 | 72.26866 | 31815 ft | 379 kts | 321° |
| 2026-05-05 01:26 | 22.53579 | 72.23489 | 31815 ft | 380 kts | 321° |
| 2026-05-05 01:26 | 22.57841 | 72.20110 | 31815 ft | 380 kts | 321° |
| 2026-05-05 01:27 | 22.62098 | 72.16732 | 31815 ft | 379 kts | 321° |
| 2026-05-05 01:27 | 22.66373 | 72.13337 | 31815 ft | 379 kts | 321° |
| 2026-05-05 01:28 | 22.70614 | 72.09965 | 31813 ft | 378 kts | 321° |
| 2026-05-05 01:28 | 22.74869 | 72.06582 | 31805 ft | 377 kts | 321° |
| 2026-05-05 01:29 | 22.79098 | 72.03216 | 31801 ft | 377 kts | 321° |
| 2026-05-05 01:29 | 22.83330 | 71.99844 | 31799 ft | 377 kts | 321° |
| 2026-05-05 01:30 | 22.87536 | 71.96489 | 31797 ft | 377 kts | 321° |
| 2026-05-05 01:30 | 22.91753 | 71.93124 | 31799 ft | 377 kts | 321° |
| 2026-05-05 01:31 | 22.95992 | 71.89738 | 31801 ft | 377 kts | 321° |
| 2026-05-05 01:31 | 23.00213 | 71.86365 | 31801 ft | 376 kts | 321° |
| 2026-05-05 01:32 | 23.04422 | 71.82998 | 31799 ft | 376 kts | 321° |
| 2026-05-05 01:32 | 23.08641 | 71.79622 | 31797 ft | 376 kts | 321° |